Terminal Aerodrome Forecast
Issued by NWS

Home | Current Version | Previous Version | Text Only | Print | Product List | Glossary On
Versions: 1 2 3 4 5 6 7 8 9 10 11 12 13 14 15 16 17 18 19 20 21 22
000
FTUS43 KDLH 032327
TAFHIB
TAF
KHIB 032327Z 0400/0424 31011G17KT P6SM VCSH BKN050 OVC060
     FM040100 31008KT P6SM SCT050 BKN080
     FM040500 32004KT P6SM BKN040
      TEMPO 0409/0413 1SM BR OVC004
     FM041800 33007KT P6SM SCT040=

USA.gov is the U.S. government's official web portal to all federal, state and local government web resources and services.